CYOW

Ottawa / Macdonald-Cartier International Airport

Ottawa, , Canada
METAR CYOW 221700Z 32007KT 280V340 15SM SKC 12/M12 A3042 RMK SLP306
Observed Flight Rules
Apr-22 @ 17:00 UTC (an hour ago) Visual Flight Rules
Wind Visibility Clouds
320° at 7 knots 15 miles
  • Clear skies
Temperatures Readings
Current 12°C / 54°F
Dewpoint -12°C / 10°F
Humidity 18%
Altimeter 30.42" Hg
Pressure 1030.6 hPa
Elevation 114
METAR CYOW 221700Z 32007KT 280V340 15SM SKC 12/M12 A3042 RMK SLP306
Observed Flight Rules
Apr-22 @ 17:00 UTC
(an hour ago)
VFR
Wind Visibility
320° at 7 knots 15 miles
Clouds
  • Clear skies
Temperature Dewpoint
12°C / 54°F -12°C / 10°F
Humidity Altimeter Pressure
18% 30.42" Hg 1030.6 hPa